Time;durP1;ratioP1;P1;durP2;ratioP2;P2;SDS_P1;SDS_P2;PMS_P1;PMS_P2;Temp;Humidity;BMP_temperature;BMP_pressure;BME280_temperature;BME280_humidity;BME280_pressure;Samples;Min_cycle;Max_cycle;Signal;HPM_P1;HPM_P2
2022/01/30 00:01:01;;;;;;;15.35;6.88;;;;;;;;;;6249620;23;20412;-80
2022/01/30 00:03:27;;;;;;;12.32;6.07;;;;;;;;;;6250486;23;20068;-80
2022/01/30 00:05:54;;;;;;;12.15;6.25;;;;;;;;;;6249598;23;19999;-80
2022/01/30 00:08:21;;;;;;;11.23;5.40;;;;;;;;;;6248692;23;20061;-80
2022/01/30 00:10:52;;;;;;;21.50;7.18;;;;;;;;;;6250671;23;19994;-80
2022/01/30 00:13:20;;;;;;;14.27;6.80;;;;;;;;;;6222439;23;19996;-80
2022/01/30 00:15:52;;;;;;;13.00;6.30;;;;;;;;;;6222544;23;20003;-80
2022/01/30 00:18:39;;;;;;;15.63;7.05;;;;;;;;;;6249089;23;20350;-80
2022/01/30 00:24:13;;;;;;;13.13;5.75;;;;;;;;;;6250611;23;19995;-80
2022/01/30 00:26:40;;;;;;;10.00;5.90;;;;;;;;;;6250923;23;20062;-80
2022/01/30 00:29:07;;;;;;;11.20;5.28;;;;;;;;;;6223723;23;20412;-80
2022/01/30 00:31:35;;;;;;;10.68;4.45;;;;;;;;;;6249733;23;20326;-80
2022/01/30 00:34:02;;;;;;;9.20;4.80;;;;;;;;;;6222486;23;19988;-80
2022/01/30 00:36:30;;;;;;;11.77;5.88;;;;;;;;;;6249207;23;19992;-80
2022/01/30 00:38:59;;;;;;;15.05;6.53;;;;;;;;;;6250090;23;20298;-80
2022/01/30 00:41:25;;;;;;;15.00;7.10;;;;;;;;;;6222032;23;20028;-80
2022/01/30 00:43:51;;;;;;;12.80;5.28;;;;;;;;;;6222487;23;20000;-80
2022/01/30 00:46:17;;;;;;;11.23;5.00;;;;;;;;;;6250000;23;20344;-80
2022/01/30 00:48:43;;;;;;;9.85;5.00;;;;;;;;;;6249237;23;20379;-80
2022/01/30 00:51:10;;;;;;;13.13;6.68;;;;;;;;;;6223611;23;19992;-80
2022/01/30 00:53:36;;;;;;;14.25;7.00;;;;;;;;;;6222690;23;20019;-80
2022/01/30 00:56:02;;;;;;;12.98;7.35;;;;;;;;;;6222555;23;20057;-80
2022/01/30 00:58:28;;;;;;;14.15;5.63;;;;;;;;;;6224121;23;19996;-80
2022/01/30 01:00:54;;;;;;;14.48;7.25;;;;;;;;;;6222340;23;20004;-80
2022/01/30 01:03:20;;;;;;;17.08;7.45;;;;;;;;;;6248885;23;20037;-80
2022/01/30 01:05:47;;;;;;;12.35;5.72;;;;;;;;;;6222534;23;20000;-80
2022/01/30 01:08:26;;;;;;;10.30;4.47;;;;;;;;;;6248533;23;20341;-80
2022/01/30 01:10:59;;;;;;;8.77;4.88;;;;;;;;;;6224307;23;19993;-80
2022/01/30 01:24:00;;;;;;;6.53;3.65;;;;;;;;;;6247972;23;20003;-80
2022/01/30 01:26:26;;;;;;;7.95;4.03;;;;;;;;;;6248291;23;20004;-80
2022/01/30 01:28:53;;;;;;;7.45;4.40;;;;;;;;;;6247802;23;19988;-80
2022/01/30 01:31:19;;;;;;;8.50;4.45;;;;;;;;;;6221104;23;19992;-80
2022/01/30 01:34:01;;;;;;;10.38;4.22;;;;;;;;;;6248483;23;20452;-80
2022/01/30 01:36:27;;;;;;;9.07;5.10;;;;;;;;;;6196454;23;20004;-80
2022/01/30 01:39:14;;;;;;;9.32;5.30;;;;;;;;;;6262173;22;19975;-74
2022/01/30 01:41:46;;;;;;;9.60;5.60;;;;;;;;;;6156984;23;20017;-73
2022/01/30 01:44:15;;;;;;;10.60;5.93;;;;;;;;;;6183683;23;20294;-74
2022/01/30 01:47:00;;;;;;;8.05;3.85;;;;;;;;;;6184394;23;20411;-74
2022/01/30 01:49:52;;;;;;;7.65;3.65;;;;;;;;;;6140083;23;20001;-73
2022/01/30 01:52:23;;;;;;;8.45;3.88;;;;;;;;;;6124094;23;20384;-75
2022/01/30 01:55:16;;;;;;;8.18;4.10;;;;;;;;;;6212549;23;20020;-74
2022/01/30 01:58:12;;;;;;;7.63;5.20;;;;;;;;;;6164446;23;19996;-74
2022/01/30 02:00:43;;;;;;;11.25;4.22;;;;;;;;;;6179161;23;20326;-80
2022/01/30 02:03:10;;;;;;;10.00;6.20;;;;;;;;;;6248983;23;19992;-80
2022/01/30 02:05:39;;;;;;;18.58;10.10;;;;;;;;;;6222876;23;20071;-80
2022/01/30 02:11:02;;;;;;;26.48;13.02;;;;;;;;;;6248673;23;19995;-79
2022/01/30 02:24:35;;;;;;;14.57;8.48;;;;;;;;;;6250347;23;19988;-82
2022/01/30 02:27:01;;;;;;;13.73;9.37;;;;;;;;;;6222127;23;20375;-81
2022/01/30 02:29:28;;;;;;;17.08;8.90;;;;;;;;;;6248082;23;20491;-79
2022/01/30 02:31:57;;;;;;;12.70;8.23;;;;;;;;;;6221613;23;20034;-79
2022/01/30 02:34:27;;;;;;;15.10;8.73;;;;;;;;;;6222227;23;20059;-79
2022/01/30 02:36:53;;;;;;;12.93;8.57;;;;;;;;;;6221588;23;20055;-79
2022/01/30 02:39:20;;;;;;;10.55;6.95;;;;;;;;;;6221563;23;19992;-79
2022/01/30 02:41:46;;;;;;;12.68;7.90;;;;;;;;;;6248163;23;20485;-79
2022/01/30 02:44:38;;;;;;;15.57;7.80;;;;;;;;;;6221497;23;20019;-79
2022/01/30 02:47:06;;;;;;;22.63;9.40;;;;;;;;;;6247534;23;19996;-79
2022/01/30 02:49:46;;;;;;;17.10;8.45;;;;;;;;;;6249818;23;20045;-79
2022/01/30 02:52:14;;;;;;;16.55;7.82;;;;;;;;;;6220534;23;20004;-79
2022/01/30 02:54:40;;;;;;;15.60;8.68;;;;;;;;;;6247819;23;19992;-79
2022/01/30 02:57:06;;;;;;;13.80;8.68;;;;;;;;;;6247766;23;20452;-79
2022/01/30 02:59:32;;;;;;;12.93;8.82;;;;;;;;;;6256966;23;20056;-81
2022/01/30 03:02:01;;;;;;;16.10;7.20;;;;;;;;;;6253757;23;20314;-81
2022/01/30 03:04:27;;;;;;;12.55;7.70;;;;;;;;;;6251327;23;19991;-81
2022/01/30 03:06:53;;;;;;;16.17;8.18;;;;;;;;;;6199924;23;20004;-81
2022/01/30 03:09:19;;;;;;;17.95;9.07;;;;;;;;;;6250489;23;19996;-81
2022/01/30 03:11:45;;;;;;;17.73;9.45;;;;;;;;;;6251463;23;20003;-81
2022/01/30 03:14:11;;;;;;;14.15;7.88;;;;;;;;;;6223464;23;20028;-81
2022/01/30 03:16:37;;;;;;;15.40;8.52;;;;;;;;;;6249988;23;19996;-81
2022/01/30 03:19:03;;;;;;;16.50;9.23;;;;;;;;;;6224580;23;19989;-81
2022/01/30 03:21:29;;;;;;;15.77;8.90;;;;;;;;;;6199111;23;20015;-81
2022/01/30 03:23:55;;;;;;;15.27;9.57;;;;;;;;;;6250759;23;19994;-81
2022/01/30 03:26:22;;;;;;;21.65;9.23;;;;;;;;;;6198913;23;20020;-81
2022/01/30 03:28:50;;;;;;;18.05;8.70;;;;;;;;;;6223972;23;20067;-81
2022/01/30 03:31:18;;;;;;;9.73;6.53;;;;;;;;;;6223415;23;20050;-81
2022/01/30 03:33:45;;;;;;;16.05;8.73;;;;;;;;;;6250818;23;20038;-81
2022/01/30 03:36:11;;;;;;;12.50;6.93;;;;;;;;;;6250768;23;19996;-81
2022/01/30 03:38:37;;;;;;;11.25;6.50;;;;;;;;;;6223498;23;19988;-81
2022/01/30 03:41:03;;;;;;;13.23;6.13;;;;;;;;;;6198029;23;20291;-82
2022/01/30 03:43:29;;;;;;;12.88;7.28;;;;;;;;;;6250617;23;19988;-81
2022/01/30 03:45:55;;;;;;;11.10;6.75;;;;;;;;;;6250383;23;19996;-81
2022/01/30 03:48:21;;;;;;;10.38;6.40;;;;;;;;;;6248853;23;20390;-81
2022/01/30 03:50:47;;;;;;;13.65;7.90;;;;;;;;;;6250602;23;20079;-81
2022/01/30 03:53:13;;;;;;;12.68;7.55;;;;;;;;;;6222770;23;19989;-81
2022/01/30 03:55:39;;;;;;;16.45;6.93;;;;;;;;;;6198580;23;20000;-82
2022/01/30 03:58:07;;;;;;;14.30;7.63;;;;;;;;;;6219317;23;20004;-75
2022/01/30 04:00:35;;;;;;;14.63;8.32;;;;;;;;;;6183294;23;20421;-75
2022/01/30 04:03:01;;;;;;;14.30;6.70;;;;;;;;;;6161796;23;19992;-75
2022/01/30 04:05:28;;;;;;;11.38;5.63;;;;;;;;;;6163003;23;20087;-75
2022/01/30 04:07:54;;;;;;;12.57;8.02;;;;;;;;;;6195595;23;20422;-75
2022/01/30 04:10:22;;;;;;;12.93;8.32;;;;;;;;;;6209738;23;20370;-75
2022/01/30 04:15:28;;;;;;;16.70;9.00;;;;;;;;;;6231358;23;20036;-75
2022/01/30 04:18:10;;;;;;;12.05;7.97;;;;;;;;;;6203566;23;20016;-76
2022/01/30 04:20:47;;;;;;;16.57;10.00;;;;;;;;;;6178615;23;20012;-76
2022/01/30 04:26:25;;;;;;;18.73;11.60;;;;;;;;;;6231173;23;20095;-79
2022/01/30 04:28:51;;;;;;;22.58;12.90;;;;;;;;;;6250304;23;19988;-79
2022/01/30 04:31:17;;;;;;;17.35;8.63;;;;;;;;;;6222615;23;20012;-79
2022/01/30 04:33:43;;;;;;;27.23;12.68;;;;;;;;;;6250838;23;20418;-79
2022/01/30 04:36:13;;;;;;;15.45;8.80;;;;;;;;;;6250398;23;20026;-80
2022/01/30 04:41:49;;;;;;;11.82;5.53;;;;;;;;;;6254501;22;20004;-80
2022/01/30 04:52:49;;;;;;;18.05;8.13;;;;;;;;;;6248733;23;20402;-79
2022/01/30 04:57:55;;;;;;;23.20;12.55;;;;;;;;;;6249385;23;20310;-79
2022/01/30 05:08:03;;;;;;;21.77;12.35;;;;;;;;;;6250428;23;20378;-79
2022/01/30 05:10:29;;;;;;;20.75;10.70;;;;;;;;;;6248304;23;19980;-81
2022/01/30 05:12:57;;;;;;;18.10;9.50;;;;;;;;;;6222425;23;20402;-82
2022/01/30 05:15:26;;;;;;;20.77;10.05;;;;;;;;;;6249155;23;20004;-81
2022/01/30 05:17:53;;;;;;;28.63;12.48;;;;;;;;;;6250925;23;19989;-81
2022/01/30 05:20:19;;;;;;;29.25;14.25;;;;;;;;;;6223538;23;19992;-81
2022/01/30 05:22:46;;;;;;;27.95;13.05;;;;;;;;;;6197478;23;20008;-81
2022/01/30 05:25:12;;;;;;;22.23;6.80;;;;;;;;;;6249018;23;20398;-81
2022/01/30 05:27:38;;;;;;;28.42;8.48;;;;;;;;;;6248415;23;20313;-81
2022/01/30 05:30:05;;;;;;;23.10;9.02;;;;;;;;;;6222049;23;19992;-79
2022/01/30 05:32:31;;;;;;;33.10;12.77;;;;;;;;;;6249422;23;20063;-82
2022/01/30 05:34:58;;;;;;;38.05;10.77;;;;;;;;;;6248324;23;20409;-79
2022/01/30 05:37:24;;;;;;;38.00;13.40;;;;;;;;;;6221994;23;20378;-82
2022/01/30 05:47:27;;;;;;;17.73;6.70;;;;;;;;;;6093966;23;20407;-81
2022/01/30 05:49:54;;;;;;;22.30;9.20;;;;;;;;;;6248149;23;20098;-80
2022/01/30 05:52:22;;;;;;;23.83;10.27;;;;;;;;;;6249520;23;19988;-80
2022/01/30 05:54:48;;;;;;;20.20;7.43;;;;;;;;;;6248584;23;20421;-81
2022/01/30 05:57:14;;;;;;;17.25;7.78;;;;;;;;;;6248923;23;19992;-80
2022/01/30 05:59:40;;;;;;;11.57;6.10;;;;;;;;;;6248460;23;19988;-80
2022/01/30 06:02:06;;;;;;;13.73;6.13;;;;;;;;;;6249840;23;20015;-80
2022/01/30 06:04:32;;;;;;;16.58;7.43;;;;;;;;;;6221675;23;20046;-80
2022/01/30 06:07:00;;;;;;;20.75;6.53;;;;;;;;;;6222098;23;19992;-80
2022/01/30 06:09:26;;;;;;;13.30;6.95;;;;;;;;;;6248194;23;20016;-80
2022/01/30 06:11:52;;;;;;;20.27;7.25;;;;;;;;;;6248528;23;20007;-80
2022/01/30 06:14:22;;;;;;;11.68;7.15;;;;;;;;;;6222495;23;20055;-81
2022/01/30 06:16:53;;;;;;;15.70;7.82;;;;;;;;;;6248342;23;20410;-80
2022/01/30 06:19:19;;;;;;;12.95;6.32;;;;;;;;;;6247916;23;20350;-80
2022/01/30 06:21:45;;;;;;;14.88;7.70;;;;;;;;;;6196263;23;20402;-80
2022/01/30 06:24:12;;;;;;;14.75;8.25;;;;;;;;;;6251370;23;20487;-80
2022/01/30 06:26:38;;;;;;;14.88;6.20;;;;;;;;;;6248626;23;20006;-80
2022/01/30 06:29:04;;;;;;;12.80;8.25;;;;;;;;;;6220692;23;20043;-80
2022/01/30 06:31:30;;;;;;;22.05;9.95;;;;;;;;;;6222463;23;20394;-80
2022/01/30 06:33:56;;;;;;;19.20;7.85;;;;;;;;;;6249613;23;20344;-80
2022/01/30 06:36:22;;;;;;;22.90;8.20;;;;;;;;;;6250163;23;20067;-80
2022/01/30 06:38:49;;;;;;;25.65;7.28;;;;;;;;;;6251300;23;19988;-80
2022/01/30 06:41:15;;;;;;;14.05;6.80;;;;;;;;;;6224255;23;20035;-80
2022/01/30 06:43:41;;;;;;;14.73;7.15;;;;;;;;;;6223879;23;20051;-80
2022/01/30 06:46:10;;;;;;;26.23;8.75;;;;;;;;;;6249630;23;20034;-80
2022/01/30 06:48:36;;;;;;;24.83;9.23;;;;;;;;;;6250293;23;20069;-80
2022/01/30 06:51:04;;;;;;;17.83;8.73;;;;;;;;;;6249583;23;19996;-80
2022/01/30 06:53:31;;;;;;;19.42;9.20;;;;;;;;;;6224144;23;20007;-80
2022/01/30 06:55:57;;;;;;;21.38;8.93;;;;;;;;;;6223522;23;20054;-79
2022/01/30 06:58:23;;;;;;;23.17;8.45;;;;;;;;;;6250249;23;20003;-80
2022/01/30 07:00:49;;;;;;;21.05;9.82;;;;;;;;;;6252037;23;20011;-80
2022/01/30 07:03:16;;;;;;;19.17;8.82;;;;;;;;;;6224590;23;19984;-79
2022/01/30 07:05:42;;;;;;;17.67;9.00;;;;;;;;;;6250594;23;19992;-79
2022/01/30 07:13:24;;;;;;;17.23;10.52;;;;;;;;;;6206359;23;20024;-79
2022/01/30 07:15:50;;;;;;;20.05;12.30;;;;;;;;;;6251209;23;19999;-80
2022/01/30 07:18:16;;;;;;;18.75;10.63;;;;;;;;;;6251264;23;20309;-79
2022/01/30 07:20:42;;;;;;;20.25;10.95;;;;;;;;;;6225319;23;20006;-80
2022/01/30 07:23:10;;;;;;;19.25;9.30;;;;;;;;;;6251367;23;20016;-79
2022/01/30 07:25:36;;;;;;;19.50;12.32;;;;;;;;;;6223438;23;20022;-80
2022/01/30 07:28:02;;;;;;;17.42;10.90;;;;;;;;;;6251304;23;20063;-80
2022/01/30 07:30:28;;;;;;;21.58;10.93;;;;;;;;;;6224062;23;20083;-79
2022/01/30 07:32:55;;;;;;;18.52;11.00;;;;;;;;;;6250389;23;20053;-79
2022/01/30 07:35:21;;;;;;;25.02;10.13;;;;;;;;;;6250522;23;20023;-79
2022/01/30 07:37:47;;;;;;;14.32;8.70;;;;;;;;;;6223870;23;20133;-79
2022/01/30 07:40:13;;;;;;;22.88;12.15;;;;;;;;;;6250180;23;20004;-80
2022/01/30 07:42:39;;;;;;;20.13;10.88;;;;;;;;;;6251801;23;20004;-80
2022/01/30 07:45:05;;;;;;;15.82;9.43;;;;;;;;;;6223981;23;20030;-80
2022/01/30 07:47:32;;;;;;;24.20;12.15;;;;;;;;;;6223384;23;19992;-79
2022/01/30 07:49:58;;;;;;;19.50;10.07;;;;;;;;;;6250980;23;20325;-79
2022/01/30 07:52:24;;;;;;;20.88;12.50;;;;;;;;;;6250514;23;19996;-79
2022/01/30 07:54:50;;;;;;;19.17;10.63;;;;;;;;;;6225364;23;20307;-79
2022/01/30 07:57:18;;;;;;;15.68;10.32;;;;;;;;;;6218958;23;20016;-80
2022/01/30 07:59:44;;;;;;;21.67;14.35;;;;;;;;;;6250041;23;20038;-80
2022/01/30 08:02:11;;;;;;;22.60;11.20;;;;;;;;;;6250044;23;20370;-79
2022/01/30 08:04:37;;;;;;;18.30;10.75;;;;;;;;;;6186890;23;20094;-79
2022/01/30 08:07:03;;;;;;;23.58;13.40;;;;;;;;;;6250300;23;20354;-79
2022/01/30 08:09:29;;;;;;;25.00;16.20;;;;;;;;;;6250076;23;19996;-80
2022/01/30 08:11:55;;;;;;;15.25;8.48;;;;;;;;;;6250289;23;20114;-80
2022/01/30 08:14:21;;;;;;;22.20;13.10;;;;;;;;;;6250278;23;19995;-80
2022/01/30 08:16:47;;;;;;;21.63;12.80;;;;;;;;;;6223051;23;20000;-79
2022/01/30 08:19:14;;;;;;;21.27;12.43;;;;;;;;;;6222597;23;19988;-80
2022/01/30 08:21:40;;;;;;;23.52;12.93;;;;;;;;;;6249932;23;20417;-79
2022/01/30 08:24:06;;;;;;;19.92;11.55;;;;;;;;;;6250484;23;19999;-79
2022/01/30 08:26:32;;;;;;;27.20;12.30;;;;;;;;;;6222692;23;20008;-80
2022/01/30 08:28:58;;;;;;;15.73;10.50;;;;;;;;;;6249330;23;20042;-80
2022/01/30 08:31:24;;;;;;;19.45;11.02;;;;;;;;;;6249462;23;19988;-79
2022/01/30 08:33:50;;;;;;;17.15;9.50;;;;;;;;;;6247011;23;20002;-80
2022/01/30 08:36:16;;;;;;;17.20;10.13;;;;;;;;;;6249108;23;20035;-80
2022/01/30 08:38:42;;;;;;;22.95;11.30;;;;;;;;;;6224616;23;19996;-79
2022/01/30 08:41:08;;;;;;;22.33;11.85;;;;;;;;;;6248802;23;20295;-79
2022/01/30 08:43:36;;;;;;;22.48;12.55;;;;;;;;;;6222812;23;19992;-80
2022/01/30 08:46:03;;;;;;;32.70;13.23;;;;;;;;;;6224305;23;19992;-79
2022/01/30 08:48:31;;;;;;;58.53;22.50;;;;;;;;;;6250063;23;20391;-80
2022/01/30 08:50:57;;;;;;;33.22;15.20;;;;;;;;;;6249820;23;20075;-79
2022/01/30 08:53:23;;;;;;;31.42;14.70;;;;;;;;;;6250082;23;19996;-80
2022/01/30 08:55:49;;;;;;;27.33;13.23;;;;;;;;;;6249375;23;20279;-79
2022/01/30 08:58:16;;;;;;;27.70;15.90;;;;;;;;;;6222595;23;20003;-79
2022/01/30 09:00:43;;;;;;;19.98;13.77;;;;;;;;;;6248642;23;20023;-79
2022/01/30 09:03:10;;;;;;;27.77;13.98;;;;;;;;;;6249972;23;19996;-79
2022/01/30 09:05:36;;;;;;;22.08;13.20;;;;;;;;;;6249000;23;20115;-80
2022/01/30 09:08:07;;;;;;;36.55;19.25;;;;;;;;;;6250606;23;20461;-79
2022/01/30 09:10:33;;;;;;;24.20;11.85;;;;;;;;;;6249574;23;20019;-80
2022/01/30 09:13:00;;;;;;;22.48;13.05;;;;;;;;;;6249661;23;20073;-79
2022/01/30 09:15:26;;;;;;;26.67;13.77;;;;;;;;;;6249013;23;19988;-80
2022/01/30 09:17:53;;;;;;;22.90;13.88;;;;;;;;;;6222786;23;20409;-80
2022/01/30 09:20:19;;;;;;;23.40;13.82;;;;;;;;;;6222932;23;20047;-80
2022/01/30 09:22:45;;;;;;;29.70;15.30;;;;;;;;;;6251430;23;20399;-80
2022/01/30 09:25:11;;;;;;;30.67;18.23;;;;;;;;;;6249875;23;19988;-80
2022/01/30 09:27:38;;;;;;;31.85;19.10;;;;;;;;;;6249404;23;20019;-80
2022/01/30 09:30:05;;;;;;;37.92;18.40;;;;;;;;;;6249527;23;20401;-80
2022/01/30 09:32:31;;;;;;;38.22;19.10;;;;;;;;;;6222856;23;20090;-79
2022/01/30 09:34:57;;;;;;;31.85;18.70;;;;;;;;;;6222517;23;20313;-79
2022/01/30 09:37:23;;;;;;;31.58;16.42;;;;;;;;;;6252137;23;19996;-80
2022/01/30 09:39:49;;;;;;;27.00;16.70;;;;;;;;;;6249010;23;20421;-80
2022/01/30 09:42:16;;;;;;;30.25;16.83;;;;;;;;;;6248065;23;20075;-79
2022/01/30 09:44:43;;;;;;;27.80;15.57;;;;;;;;;;6249784;23;19996;-80
2022/01/30 09:47:10;;;;;;;34.60;18.92;;;;;;;;;;6249317;23;20012;-79
2022/01/30 09:49:38;;;;;;;26.20;14.57;;;;;;;;;;6222384;23;20063;-80
2022/01/30 09:54:32;;;;;;;36.70;19.08;;;;;;;;;;6192621;23;20027;-79
2022/01/30 09:56:58;;;;;;;42.88;24.33;;;;;;;;;;6249212;23;20395;-79
2022/01/30 09:59:24;;;;;;;35.22;18.30;;;;;;;;;;6248904;23;19992;-79
2022/01/30 10:01:50;;;;;;;31.70;14.90;;;;;;;;;;6222801;23;20015;-79
2022/01/30 10:04:16;;;;;;;39.70;20.35;;;;;;;;;;6183383;23;20408;-79
2022/01/30 10:07:02;;;;;;;30.13;19.00;;;;;;;;;;6245030;23;20019;-79
2022/01/30 10:09:31;;;;;;;41.05;23.50;;;;;;;;;;6255225;23;19992;-80
2022/01/30 10:12:19;;;;;;;37.03;17.90;;;;;;;;;;6222906;23;20051;-79
2022/01/30 10:15:00;;;;;;;38.85;20.73;;;;;;;;;;6222290;23;20010;-79
2022/01/30 10:17:26;;;;;;;43.55;25.92;;;;;;;;;;6248887;23;20004;-79
2022/01/30 10:20:00;;;;;;;40.85;20.70;;;;;;;;;;6249742;23;19993;-79
2022/01/30 10:22:26;;;;;;;47.90;24.02;;;;;;;;;;6249211;23;20000;-79
2022/01/30 10:24:52;;;;;;;46.72;21.80;;;;;;;;;;6249557;23;20008;-79
2022/01/30 10:27:18;;;;;;;36.17;22.65;;;;;;;;;;6248844;23;20020;-79
2022/01/30 10:29:44;;;;;;;40.63;22.80;;;;;;;;;;6247736;23;20292;-79
2022/01/30 10:32:10;;;;;;;39.17;22.30;;;;;;;;;;6249540;23;19993;-79
2022/01/30 10:34:38;;;;;;;47.85;22.75;;;;;;;;;;6249459;23;19999;-80
2022/01/30 10:37:19;;;;;;;47.30;22.88;;;;;;;;;;6197997;23;20295;-80
2022/01/30 10:39:45;;;;;;;;;;;;;;;;;;6250181;23;20367;-79
2022/01/30 10:42:28;;;;;;;39.17;21.90;;;;;;;;;;6223076;23;19907;-79
2022/01/30 10:44:54;;;;;;;42.03;22.90;;;;;;;;;;6249783;23;20441;-79
2022/01/30 10:47:21;;;;;;;36.25;21.33;;;;;;;;;;6248770;23;20000;-79
2022/01/30 10:49:47;;;;;;;43.20;25.58;;;;;;;;;;6249667;23;19985;-79
2022/01/30 10:52:13;;;;;;;38.15;19.50;;;;;;;;;;6249797;23;20287;-79
2022/01/30 10:54:40;;;;;;;51.42;20.38;;;;;;;;;;6249534;23;19992;-79
2022/01/30 10:57:07;;;;;;;46.15;25.80;;;;;;;;;;6248624;23;20003;-79
2022/01/30 10:59:33;;;;;;;44.13;21.15;;;;;;;;;;6250130;23;20012;-79
2022/01/30 11:02:18;;;;;;;45.03;25.67;;;;;;;;;;6223104;23;20071;-81
2022/01/30 11:04:46;;;;;;;47.80;21.25;;;;;;;;;;6222175;23;20349;-79
2022/01/30 11:07:15;;;;;;;42.10;24.00;;;;;;;;;;6222568;23;20083;-79
2022/01/30 11:09:53;;;;;;;47.40;23.50;;;;;;;;;;6248974;23;20016;-79
2022/01/30 11:12:30;;;;;;;44.28;24.90;;;;;;;;;;6248430;23;19993;-80
2022/01/30 11:15:15;;;;;;;46.72;26.17;;;;;;;;;;6248149;23;19985;-79
2022/01/30 11:17:43;;;;;;;44.22;23.80;;;;;;;;;;6248162;23;20055;-79
2022/01/30 11:20:11;;;;;;;51.42;27.77;;;;;;;;;;6250854;23;20299;-79
2022/01/30 11:22:37;;;;;;;54.55;26.00;;;;;;;;;;6250369;23;20417;-79
2022/01/30 11:25:05;;;;;;;46.25;27.80;;;;;;;;;;6223333;23;19992;-80
2022/01/30 11:27:32;;;;;;;47.95;26.50;;;;;;;;;;6248926;22;20391;-79
2022/01/30 11:29:58;;;;;;;58.83;32.60;;;;;;;;;;6251308;23;19995;-79
2022/01/30 11:32:26;;;;;;;52.72;29.90;;;;;;;;;;6250839;23;19989;-79
2022/01/30 11:34:52;;;;;;;56.08;29.33;;;;;;;;;;6250266;23;20394;-80
2022/01/30 11:37:18;;;;;;;51.22;31.70;;;;;;;;;;6224569;23;19984;-80
2022/01/30 11:39:45;;;;;;;56.28;29.52;;;;;;;;;;6250417;23;19992;-79
2022/01/30 11:42:18;;;;;;;57.97;31.27;;;;;;;;;;6249100;23;20054;-80
2022/01/30 11:44:44;;;;;;;69.38;37.00;;;;;;;;;;6198792;23;20007;-80
2022/01/30 11:47:10;;;;;;;65.00;34.60;;;;;;;;;;6198490;23;20070;-80
2022/01/30 11:49:38;;;;;;;62.25;32.10;;;;;;;;;;6250656;23;19999;-80
2022/01/30 11:52:06;;;;;;;71.00;37.55;;;;;;;;;;6223516;23;19996;-79
2022/01/30 11:54:40;;;;;;;76.75;40.13;;;;;;;;;;6223511;23;20016;-80
2022/01/30 11:57:18;;;;;;;72.03;38.83;;;;;;;;;;6223535;23;20007;-80
2022/01/30 11:59:45;;;;;;;77.90;41.53;;;;;;;;;;6250268;23;19993;-79
2022/01/30 12:02:27;;;;;;;72.50;36.72;;;;;;;;;;6248884;23;20004;-79
2022/01/30 12:04:54;;;;;;;80.78;42.67;;;;;;;;;;6250022;23;19989;-80
2022/01/30 12:07:38;;;;;;;89.50;42.30;;;;;;;;;;6250097;23;20350;-80
2022/01/30 12:10:20;;;;;;;92.95;50.30;;;;;;;;;;6197509;23;19992;-80
2022/01/30 12:12:47;;;;;;;99.53;52.08;;;;;;;;;;6222993;23;19997;-80
2022/01/30 12:15:34;;;;;;;105.88;54.03;;;;;;;;;;6249546;23;20031;-80
2022/01/30 12:18:00;;;;;;;111.20;57.83;;;;;;;;;;6249113;23;20046;-80
2022/01/30 12:20:28;;;;;;;104.80;56.45;;;;;;;;;;6249216;23;20304;-80
2022/01/30 12:22:55;;;;;;;121.72;55.72;;;;;;;;;;6248726;23;20074;-80
2022/01/30 12:25:28;;;;;;;119.63;53.72;;;;;;;;;;6222199;23;19992;-80
2022/01/30 12:27:55;;;;;;;117.57;54.17;;;;;;;;;;6249279;23;20383;-80
2022/01/30 12:30:31;;;;;;;107.28;56.13;;;;;;;;;;6248482;23;20017;-80
2022/01/30 12:32:57;;;;;;;98.95;49.05;;;;;;;;;;6249073;23;19992;-80
2022/01/30 12:35:24;;;;;;;92.20;48.17;;;;;;;;;;6248346;23;19999;-80
2022/01/30 12:37:50;;;;;;;91.28;47.20;;;;;;;;;;6221719;23;20425;-80
2022/01/30 12:40:17;;;;;;;91.55;48.83;;;;;;;;;;6248262;23;19996;-80
2022/01/30 12:42:45;;;;;;;96.70;49.97;;;;;;;;;;6249663;23;20416;-80
2022/01/30 12:45:12;;;;;;;92.45;47.60;;;;;;;;;;6251203;23;20054;-81
2022/01/30 12:47:48;;;;;;;100.88;52.60;;;;;;;;;;6257237;23;20071;-80
2022/01/30 12:50:16;;;;;;;99.88;48.47;;;;;;;;;;6222837;23;19999;-81
2022/01/30 12:52:47;;;;;;;128.38;69.07;;;;;;;;;;6248916;23;20007;-80
2022/01/30 12:55:16;;;;;;;207.18;113.65;;;;;;;;;;6222768;23;20032;-80
2022/01/30 12:57:43;;;;;;;217.65;114.50;;;;;;;;;;6250420;23;19988;-80
2022/01/30 13:00:11;;;;;;;217.18;110.20;;;;;;;;;;6249634;23;20351;-80
2022/01/30 13:02:37;;;;;;;191.80;108.47;;;;;;;;;;6248895;23;20011;-80
2022/01/30 13:05:06;;;;;;;253.40;122.30;;;;;;;;;;6224309;23;20075;-80
2022/01/30 13:07:32;;;;;;;217.55;116.03;;;;;;;;;;6222802;23;20452;-80
2022/01/30 13:10:09;;;;;;;217.95;117.18;;;;;;;;;;6248937;23;20298;-81
2022/01/30 13:12:38;;;;;;;227.48;121.80;;;;;;;;;;6249379;23;19996;-80
2022/01/30 13:15:05;;;;;;;235.75;125.70;;;;;;;;;;6249447;23;19992;-80
2022/01/30 13:17:31;;;;;;;220.73;116.32;;;;;;;;;;6222224;23;20034;-80
2022/01/30 13:19:58;;;;;;;243.35;127.10;;;;;;;;;;6247886;23;19996;-80
2022/01/30 13:22:33;;;;;;;304.45;166.48;;;;;;;;;;6249256;23;20004;-80
2022/01/30 13:25:00;;;;;;;343.88;193.38;;;;;;;;;;6248531;23;19984;-80
2022/01/30 13:27:26;;;;;;;323.08;179.50;;;;;;;;;;6222348;23;20027;-80
2022/01/30 13:29:55;;;;;;;353.23;194.68;;;;;;;;;;6221667;23;19992;-80
2022/01/30 13:32:23;;;;;;;381.85;209.05;;;;;;;;;;6222794;23;19993;-80
2022/01/30 13:34:49;;;;;;;384.58;214.10;;;;;;;;;;6222434;23;20049;-80
2022/01/30 13:37:17;;;;;;;306.52;156.10;;;;;;;;;;6222262;23;19992;-80
2022/01/30 13:39:51;;;;;;;364.15;204.38;;;;;;;;;;6248581;23;19992;-80
2022/01/30 13:45:07;;;;;;;368.38;198.98;;;;;;;;;;6228338;23;20021;-80
2022/01/30 13:47:34;;;;;;;316.30;176.23;;;;;;;;;;6248742;23;19996;-80
2022/01/30 13:50:00;;;;;;;224.35;120.50;;;;;;;;;;6249027;23;20365;-80
2022/01/30 13:52:30;;;;;;;262.58;147.02;;;;;;;;;;6221036;23;20114;-80
2022/01/30 13:54:57;;;;;;;235.00;126.07;;;;;;;;;;6196611;23;20007;-80
2022/01/30 13:57:28;;;;;;;195.70;108.65;;;;;;;;;;6223575;23;19996;-80
2022/01/30 14:00:03;;;;;;;179.15;94.80;;;;;;;;;;6221599;23;19999;-80
2022/01/30 14:02:29;;;;;;;181.02;98.85;;;;;;;;;;6246473;23;20004;-80
2022/01/30 14:04:55;;;;;;;172.75;94.50;;;;;;;;;;6227519;23;19992;-80
2022/01/30 14:07:22;;;;;;;164.45;89.20;;;;;;;;;;6249200;23;20119;-80
2022/01/30 14:09:51;;;;;;;164.68;80.72;;;;;;;;;;6222632;23;19999;-80
2022/01/30 14:12:18;;;;;;;170.73;75.35;;;;;;;;;;6255665;23;20019;-81
2022/01/30 14:14:59;;;;;;;140.65;70.85;;;;;;;;;;6229647;23;19998;-80
2022/01/30 14:17:25;;;;;;;135.82;67.53;;;;;;;;;;6256857;23;19995;-80
2022/01/30 14:20:01;;;;;;;122.03;60.83;;;;;;;;;;6255629;23;20075;-80
2022/01/30 14:22:33;;;;;;;120.47;59.55;;;;;;;;;;6255059;23;20437;-81
2022/01/30 14:25:03;;;;;;;114.18;56.60;;;;;;;;;;6255133;23;19988;-81
2022/01/30 14:27:33;;;;;;;113.20;57.08;;;;;;;;;;6227429;23;19984;-81
2022/01/30 14:30:03;;;;;;;108.05;55.85;;;;;;;;;;6252157;23;19999;-81
2022/01/30 14:32:31;;;;;;;88.75;49.40;;;;;;;;;;6225829;23;20003;-81
2022/01/30 14:34:59;;;;;;;91.78;49.90;;;;;;;;;;6252725;23;20290;-81
2022/01/30 14:37:25;;;;;;;79.20;45.53;;;;;;;;;;6252858;23;19995;-81
2022/01/30 14:39:58;;;;;;;89.88;43.58;;;;;;;;;;6225968;23;20349;-81
2022/01/30 14:42:24;;;;;;;87.28;44.25;;;;;;;;;;6227884;23;20004;-81
2022/01/30 14:44:50;;;;;;;93.82;52.78;;;;;;;;;;6253412;23;20027;-81
2022/01/30 14:47:17;;;;;;;99.88;52.40;;;;;;;;;;6225497;23;19992;-81
2022/01/30 14:49:44;;;;;;;101.85;49.80;;;;;;;;;;6200814;23;20003;-81
2022/01/30 14:52:10;;;;;;;99.15;49.47;;;;;;;;;;6252306;23;19996;-80
2022/01/30 14:54:36;;;;;;;102.88;50.45;;;;;;;;;;6253500;23;19988;-81
2022/01/30 14:57:04;;;;;;;93.97;46.53;;;;;;;;;;6227286;23;19992;-81
2022/01/30 14:59:30;;;;;;;98.18;47.55;;;;;;;;;;6227571;23;20069;-81
2022/01/30 15:01:59;;;;;;;86.25;45.20;;;;;;;;;;6202485;23;20334;-81
2022/01/30 15:04:25;;;;;;;87.13;41.33;;;;;;;;;;6227284;23;19993;-81
2022/01/30 15:06:51;;;;;;;77.80;38.78;;;;;;;;;;6254499;23;19995;-81
2022/01/30 15:09:17;;;;;;;76.95;39.85;;;;;;;;;;6254216;23;20429;-81
2022/01/30 15:11:44;;;;;;;94.75;36.30;;;;;;;;;;6227583;23;19998;-81
2022/01/30 15:14:11;;;;;;;67.53;35.78;;;;;;;;;;6227831;23;20017;-81
2022/01/30 15:16:47;;;;;;;69.50;33.33;;;;;;;;;;6227485;23;20043;-81
2022/01/30 15:19:14;;;;;;;77.63;32.65;;;;;;;;;;6227089;23;20043;-81
2022/01/30 15:21:40;;;;;;;57.75;33.92;;;;;;;;;;6227766;23;20075;-81
2022/01/30 15:24:08;;;;;;;77.68;38.28;;;;;;;;;;6254534;23;20012;-81
2022/01/30 15:26:34;;;;;;;75.85;40.60;;;;;;;;;;6228169;23;19988;-81
2022/01/30 15:29:01;;;;;;;84.97;44.53;;;;;;;;;;6201288;23;20309;-81
2022/01/30 15:31:27;;;;;;;96.57;47.97;;;;;;;;;;6250712;23;20062;-80
2022/01/30 15:33:53;;;;;;;91.70;49.03;;;;;;;;;;6223449;23;20019;-80
2022/01/30 15:36:19;;;;;;;113.90;56.97;;;;;;;;;;6226648;23;19993;-81
2022/01/30 15:38:46;;;;;;;99.47;50.40;;;;;;;;;;6226741;23;20067;-81
2022/01/30 15:41:12;;;;;;;98.90;52.78;;;;;;;;;;6225885;23;20008;-80